createdAt,value
2023-04-25T00:02:25.980Z,2.70
2023-04-25T00:06:27.629Z,2.65
2023-04-25T00:10:29.437Z,2.55
2023-04-25T00:14:31.217Z,2.60
2023-04-25T00:18:34.119Z,2.55
2023-04-25T00:22:38.025Z,2.20
2023-04-25T00:26:39.676Z,2.50
2023-04-25T00:30:42.088Z,2.67
2023-04-25T00:34:43.731Z,2.90
2023-04-25T00:38:45.182Z,2.35
2023-04-25T00:42:48.097Z,2.38
2023-04-25T00:46:53.025Z,3.30
2023-04-25T00:50:57.921Z,3.05
2023-04-25T00:55:00.323Z,2.85
2023-04-25T00:59:01.907Z,3.00
2023-04-25T01:03:04.823Z,2.95
2023-04-25T01:07:06.448Z,3.70
2023-04-25T01:11:58.550Z,3.53
2023-04-25T01:16:50.196Z,3.75
2023-04-25T01:20:53.198Z,3.38
2023-04-25T01:24:56.664Z,3.60
2023-04-25T01:28:59.051Z,3.20
2023-04-25T01:33:01.906Z,3.45
2023-04-25T01:37:04.001Z,3.47
2023-04-25T01:41:39.691Z,3.75
2023-04-25T01:46:32.485Z,3.33
2023-04-25T01:50:34.638Z,3.08
2023-04-25T01:54:36.248Z,3.85
2023-04-25T01:58:38.545Z,3.40
2023-04-25T02:03:02.592Z,3.28
2023-04-25T02:07:08.645Z,3.78
2023-04-25T02:11:22.094Z,3.42
2023-04-25T02:15:44.189Z,3.88
2023-04-25T02:19:51.096Z,3.53
2023-04-25T02:23:53.194Z,4.03
2023-04-25T02:27:55.580Z,4.00
2023-04-25T02:31:57.522Z,4.18
2023-04-25T02:35:59.096Z,3.72
2023-04-25T02:40:01.760Z,4.28
2023-04-25T02:44:37.466Z,3.85
2023-04-25T02:54:50.661Z,3.97
2023-04-25T02:59:42.149Z,3.92
2023-04-25T03:03:44.003Z,4.25
2023-04-25T03:07:46.602Z,3.72
2023-04-25T03:12:38.039Z,3.53
2023-04-25T03:17:30.084Z,4.10
2023-04-25T03:21:34.104Z,4.03
2023-04-25T03:25:35.853Z,4.03
2023-04-25T03:29:37.351Z,3.97
2023-04-25T03:33:40.096Z,4.30
2023-04-25T03:37:41.987Z,4.15
2023-04-25T03:42:18.523Z,3.63
2023-04-25T03:46:20.427Z,3.85
2023-04-25T03:50:23.431Z,4.25
2023-04-25T03:54:25.232Z,4.22
2023-04-25T03:58:34.166Z,4.78
2023-04-25T04:02:37.460Z,4.20
2023-04-25T04:06:39.224Z,4.28
2023-04-25T04:10:48.614Z,4.38
2023-04-25T04:15:24.551Z,4.50
2023-04-25T04:20:16.265Z,4.68
2023-04-25T04:24:47.171Z,5.38
2023-04-25T04:29:11.641Z,4.88
2023-04-25T04:44:56.302Z,5.00
2023-04-25T04:49:01.107Z,4.80
2023-04-25T04:53:37.894Z,4.68
2023-04-25T04:58:25.251Z,4.68
2023-04-25T05:02:41.224Z,4.20
2023-04-25T05:07:27.115Z,4.70
2023-04-25T05:12:02.081Z,4.47
2023-04-25T05:16:25.442Z,4.40
2023-04-25T05:20:51.335Z,4.43
2023-04-25T05:29:22.797Z,5.18
2023-04-25T05:34:04.130Z,4.53
2023-04-25T05:39:05.661Z,3.97
2023-04-25T05:43:25.773Z,4.68
2023-04-25T05:47:44.621Z,4.40
2023-04-25T05:52:01.530Z,4.70
2023-04-25T05:56:21.470Z,3.80
2023-04-25T06:01:16.997Z,4.50
2023-04-25T06:06:16.218Z,4.20
2023-04-25T06:10:18.382Z,4.55
2023-04-25T06:14:19.999Z,4.72
2023-04-25T06:19:15.188Z,4.45
2023-04-25T06:23:16.965Z,4.18
2023-04-25T06:27:33.199Z,4.80
2023-04-25T06:31:35.422Z,5.05
2023-04-25T06:35:37.099Z,4.38
2023-04-25T06:39:42.246Z,4.93
2023-04-25T06:43:43.705Z,4.88
2023-04-25T06:48:05.380Z,4.50
2023-04-25T06:52:09.277Z,5.00
2023-04-25T06:56:11.140Z,4.40
2023-04-25T07:00:31.189Z,4.40
2023-04-25T07:05:23.138Z,4.35
2023-04-25T07:10:15.046Z,3.88
2023-04-25T07:14:16.763Z,4.43
2023-04-25T07:18:18.339Z,4.05
2023-04-25T07:22:20.217Z,4.30
2023-04-25T07:26:21.942Z,4.35
2023-04-25T07:30:41.964Z,3.95
2023-04-25T07:34:43.569Z,3.92
2023-04-25T07:38:45.518Z,3.63
2023-04-25T07:43:21.200Z,3.85
2023-04-25T07:47:33.490Z,3.97
2023-04-25T07:51:57.146Z,3.88
2023-04-25T08:02:02.170Z,2.95
2023-04-25T08:06:07.701Z,2.92
2023-04-25T08:10:16.740Z,2.83
2023-04-25T08:14:19.080Z,2.50
2023-04-25T08:19:11.968Z,2.70
2023-04-25T08:28:48.932Z,2.83
2023-04-25T08:32:50.849Z,3.30
2023-04-25T08:37:15.891Z,2.08
2023-04-25T08:41:28.965Z,2.85
2023-04-25T08:45:32.975Z,2.45
2023-04-25T08:49:35.937Z,3.03
2023-04-25T08:53:40.800Z,2.70
2023-04-25T08:58:02.867Z,2.55
2023-04-25T09:02:58.418Z,2.97
2023-04-25T09:07:40.364Z,3.30
2023-04-25T09:12:45.125Z,2.90
2023-04-25T09:17:23.027Z,3.05
2023-04-25T09:21:40.654Z,3.42
2023-04-25T09:25:43.919Z,2.67
2023-04-25T09:29:45.993Z,3.05
2023-04-25T09:33:48.943Z,3.60
2023-04-25T09:37:53.377Z,3.00
2023-04-25T09:42:16.858Z,2.90
2023-04-25T09:46:22.139Z,3.50
2023-04-25T09:50:28.167Z,3.90
2023-04-25T09:54:38.710Z,4.03
2023-04-25T09:58:54.707Z,4.60
2023-04-25T10:02:58.473Z,4.30
2023-04-25T10:07:27.036Z,4.22
2023-04-25T10:11:29.446Z,5.25
2023-04-25T10:15:33.985Z,4.15
2023-04-25T10:19:35.929Z,3.53
2023-04-25T10:23:40.982Z,3.53
2023-04-25T10:27:42.556Z,3.03
2023-04-25T10:31:48.320Z,3.20
2023-04-25T10:35:50.055Z,3.08
2023-04-25T10:39:51.588Z,3.58
2023-04-25T10:44:02.355Z,3.50
2023-04-25T10:48:04.689Z,3.28
2023-04-25T10:52:15.692Z,3.80
2023-04-25T10:56:22.117Z,3.33
2023-04-25T11:00:38.315Z,3.85
2023-04-25T11:04:46.486Z,3.60
2023-04-25T11:08:51.328Z,4.32
2023-04-25T11:12:53.119Z,3.80
2023-04-25T11:17:47.407Z,4.82
2023-04-25T11:22:39.035Z,4.43
2023-04-25T11:26:47.358Z,3.95
2023-04-25T11:30:51.260Z,3.67
2023-04-25T11:34:53.325Z,3.20
2023-04-25T11:38:55.046Z,2.58
2023-04-25T11:43:46.880Z,3.30
2023-04-25T11:48:39.304Z,2.60
2023-04-25T11:52:48.142Z,2.20
2023-04-25T11:56:49.680Z,2.00
2023-04-25T12:01:11.492Z,1.80
2023-04-25T12:05:31.014Z,1.50
2023-04-25T12:09:35.795Z,1.70
2023-04-25T12:13:38.284Z,2.45
2023-04-25T12:17:40.746Z,2.00
2023-04-25T12:21:57.216Z,2.17
2023-04-25T12:26:08.120Z,2.40
2023-04-25T12:30:47.230Z,2.15
2023-04-25T12:34:52.982Z,2.72
2023-04-25T12:38:54.657Z,2.63
2023-04-25T12:42:56.206Z,2.90
2023-04-25T12:47:01.267Z,2.60
2023-04-25T12:51:25.839Z,1.70
2023-04-25T12:55:27.815Z,3.00
2023-04-25T12:59:29.413Z,2.83
2023-04-25T13:03:35.309Z,3.15
2023-04-25T13:07:37.266Z,3.17
2023-04-25T13:11:44.947Z,3.28
2023-04-25T13:15:47.088Z,3.05
2023-04-25T13:19:54.931Z,3.28
2023-04-25T13:23:56.432Z,3.75
2023-04-25T13:33:51.419Z,3.03
2023-04-25T13:38:09.799Z,3.25
2023-04-25T13:42:31.331Z,4.22
2023-04-25T13:46:45.438Z,4.05
2023-04-25T13:50:49.388Z,3.47
2023-04-25T13:54:55.294Z,3.10
2023-04-25T13:59:05.045Z,3.20
2023-04-25T14:03:08.867Z,2.97
2023-04-25T14:08:02.548Z,3.45
2023-04-25T14:12:29.119Z,4.32
2023-04-25T14:16:38.276Z,3.67
2023-04-25T14:20:40.966Z,4.05
2023-04-25T14:24:42.938Z,3.95
2023-04-25T14:34:44.254Z,3.80
2023-04-25T14:38:45.775Z,3.20
2023-04-25T14:42:47.285Z,4.10
2023-04-25T14:46:48.891Z,3.55
2023-04-25T14:50:50.489Z,3.13
2023-04-25T14:54:52.032Z,3.60
2023-04-25T14:59:44.045Z,3.38
2023-04-25T15:04:13.404Z,4.95
2023-04-25T15:08:15.004Z,3.00
2023-04-25T15:13:07.085Z,3.30
2023-04-25T15:17:08.859Z,3.08
2023-04-25T15:21:10.519Z,3.17
2023-04-25T15:25:12.731Z,2.80
2023-04-25T15:29:14.213Z,2.50
2023-04-25T15:33:16.176Z,2.13
2023-04-25T15:37:19.113Z,2.25
2023-04-25T15:41:21.118Z,1.98
2023-04-25T15:45:56.708Z,1.90
2023-04-25T15:50:48.235Z,2.75
2023-04-25T15:54:50.270Z,1.50
2023-04-25T15:59:25.638Z,2.30
2023-04-25T16:04:17.571Z,1.85
2023-04-25T16:08:22.494Z,1.77
2023-04-25T16:12:24.183Z,2.05
2023-04-25T16:16:26.390Z,1.83
2023-04-25T16:20:28.044Z,2.25
2023-04-25T16:24:29.840Z,1.73
2023-04-25T16:28:32.012Z,2.15
2023-04-25T16:38:33.549Z,1.70
2023-04-25T16:42:36.484Z,2.55
2023-04-25T16:46:39.854Z,1.60
2023-04-25T16:50:41.485Z,1.70
2023-04-25T16:55:10.010Z,2.13
2023-04-25T16:59:46.825Z,1.50
2023-04-25T17:03:51.056Z,2.22
2023-04-25T17:07:53.919Z,2.88
2023-04-25T17:11:58.744Z,2.45
2023-04-25T17:16:16.809Z,3.00
2023-04-25T17:20:18.446Z,2.50
2023-04-25T17:24:21.805Z,3.03
2023-04-25T17:28:23.701Z,2.70
2023-04-25T17:32:59.840Z,2.95
2023-04-25T17:37:54.019Z,2.10
2023-04-25T17:42:47.149Z,2.28
2023-04-25T17:46:48.888Z,2.35
2023-04-25T17:50:51.702Z,2.40
2023-04-25T17:55:18.397Z,2.92
2023-04-25T17:59:59.767Z,2.95
2023-04-25T18:04:10.806Z,3.17
2023-04-25T18:08:16.202Z,3.00
2023-04-25T18:13:09.356Z,2.30
2023-04-25T18:18:03.093Z,2.17
2023-04-25T18:22:05.081Z,2.40
2023-04-25T18:26:06.593Z,2.20
2023-04-25T18:30:10.801Z,2.60
2023-04-25T18:35:00.798Z,2.50
2023-04-25T18:43:29.569Z,2.25
2023-04-25T18:47:34.166Z,2.13
2023-04-25T18:51:36.947Z,2.35
2023-04-25T18:55:58.755Z,2.42
2023-04-25T19:00:22.974Z,2.30
2023-04-25T19:04:42.703Z,1.77
2023-04-25T19:08:44.249Z,2.42
2023-04-25T19:12:49.807Z,2.05
2023-04-25T19:16:53.520Z,2.47
2023-04-25T19:20:56.330Z,1.92
2023-04-25T19:25:09.760Z,2.35
2023-04-25T19:29:30.569Z,2.13
2023-04-25T19:33:32.638Z,2.28
2023-04-25T19:37:34.319Z,2.40
2023-04-25T19:41:38.202Z,1.70
2023-04-25T19:45:45.354Z,2.05
2023-04-25T19:54:09.631Z,2.13
2023-04-25T19:58:11.514Z,1.77
2023-04-25T20:02:33.120Z,2.22
2023-04-25T20:06:34.750Z,2.20
2023-04-25T20:11:12.030Z,1.95
2023-04-25T20:20:02.048Z,2.70
2023-04-25T20:24:07.864Z,2.08
2023-04-25T20:28:35.552Z,3.25
2023-04-25T20:32:57.105Z,2.20
2023-04-25T20:37:06.088Z,2.22
2023-04-25T20:41:35.587Z,2.00
2023-04-25T20:46:31.905Z,2.22
2023-04-25T20:55:05.266Z,2.10
2023-04-25T20:59:40.957Z,2.22
2023-04-25T21:04:32.906Z,1.83
2023-04-25T21:09:39.516Z,1.77
2023-04-25T21:13:41.320Z,1.90
2023-04-25T21:23:36.403Z,1.65
2023-04-25T21:27:37.914Z,1.45
2023-04-25T21:31:39.775Z,1.52
2023-04-25T21:35:42.065Z,1.77
2023-04-25T21:39:43.715Z,1.75
2023-04-25T21:43:45.283Z,1.52
2023-04-25T21:47:48.131Z,1.67
2023-04-25T21:58:17.517Z,1.67
2023-04-25T22:02:41.687Z,1.58
2023-04-25T22:06:43.294Z,1.38
2023-04-25T22:10:49.163Z,1.40
2023-04-25T22:14:50.788Z,1.63
2023-04-25T22:18:56.219Z,1.60
2023-04-25T22:22:58.457Z,1.83
2023-04-25T22:27:19.950Z,1.55
2023-04-25T22:31:21.638Z,1.85
2023-04-25T22:35:33.443Z,1.75
2023-04-25T22:39:35.050Z,1.52
2023-04-25T22:43:39.832Z,3.40
2023-04-25T22:47:41.917Z,2.80
2023-04-25T22:51:44.054Z,2.65
2023-04-25T22:56:35.759Z,2.05
2023-04-25T23:01:31.170Z,1.90
2023-04-25T23:05:47.383Z,2.08
2023-04-25T23:09:50.861Z,1.70
2023-04-25T23:14:12.314Z,1.65
2023-04-25T23:18:14.466Z,2.13
2023-04-25T23:22:16.300Z,2.40
2023-04-25T23:26:32.724Z,2.28
2023-04-25T23:30:34.309Z,1.80
2023-04-25T23:34:36.549Z,2.50
2023-04-25T23:38:38.106Z,2.30
2023-04-25T23:42:43.870Z,5.50
2023-04-25T23:46:46.252Z,2.30
2023-04-25T23:50:47.927Z,2.40
2023-04-25T23:54:51.062Z,1.77
2023-04-25T23:58:53.236Z,2.25
